Forside
METAR-TAF:

METAR-TAF

Lufthavne :

Tashkent International Airport

Tasjkent, Usbekistan

Breddekreds: 41-16N, længdekreds: 069-16E, højde: 489 m

Aktuelle vejr

Denne rapport blev lavet for 17 minutter siden, kl. 01:00 UTC
Vind 4 kt fra nordvest
Temperatur 0°C
Fugtighed 86%
Tryk 1030 hPa
Sigt: 4000 m
dis

METAR: UTTT 210100Z 31004KT 4000 BR NSC M00/M02 Q1030 R08R/29//50 NOSIG

Tid: 06:17 (01:17 UTC)

Vejrudsigter

Denne rapport blev lavet for 2 timer og 17 minutter siden, kl. 23:00 UTC
Foreløbig gælder fra 21 på 00 UTC til 21 på 24 UTC
Vind 6 kt fra nord
Sigt: 6000 m
Spredte skyer i en højde af 3000 ft
Brudte skyer i en højde af 10000 ft
Midlertidig
fra 21 på 00 UTC til 21 på 04 UTC
Sigt: 0800 m
Spredte skyer i en højde af 400 ft
rimtåge

TAF: UTTT 202300Z 2100/2124 35006KT 6000 SCT030 BKN100 TEMPO 2100/2104 0800 FZFG SCT004

Vejrobservationer og prognoser fra mere end 4000 lufthavne (METAR og TAF).

De gule og røde prikker repræsenterer de meteorologiske stationer.

Flyt musen over at se navnet på stationen.

Så klik over at se vejr observationer og prognoser.

At skifte det kort: Klik på de grønne knapper med et sort kors for at zoome ind; på den grønne knap med en bindestreg for at zoome ud; eller på de grønne pile for tilstødende kort.


METAR-TAF: